Flight Track Log - Related Links

Times and Time Zones

All times are in EDT time to prevent confusion due to time zone crossing. See the SWA504 flight status page for this flight to view local times or setup timezone preferences in your user account.

Time Position Orientation Groundspeed Altitude Reporting Facility
EDT Latitude Longitude Course Direction KTS MPH feet Rate Location/Type
Thu 04:44:11 PM 39.8833 -104.5667 78° East 188 216 7,200  Level Denver TRACON
Thu 04:45:44 PM 39.8772 -104.4303 93° East 270 311 10,300 2,048 Climbing Denver Center
Thu 04:46:58 PM 39.8786 -104.2981 89° East 339 390 12,900 2,584 Climbing Denver Center
Thu 04:48:01 PM 39.8806 -104.1294 89° East 378 435 16,200 2,784 Climbing Denver Center
Thu 04:49:00 PM 39.9951 -103.8349 78° East  Level Estimated
Thu 04:49:03 PM 39.8822 -103.9789 89° East 416 479 18,700  Level Denver Center
Thu 04:51:06 PM 39.8936 -103.6456 87° East 432 497 24,100 2,400 Climbing Denver Center
Thu 04:52:08 PM 39.9119 -103.4864 81° East 458 527 26,100 1,887 Climbing Denver Center
Thu 04:53:10 PM 39.9319 -103.3014 82° East 475 547 28,000 1,645 Climbing Denver Center
Thu 04:54:12 PM 39.9517 -103.1350 81° East 486 559 29,500 1,452 Climbing Denver Center
Thu 04:55:14 PM 39.9728 -102.9350 82° East 499 574 31,000 1,306 Climbing Denver Center
Thu 04:56:16 PM 39.9919 -102.7600 82° East 509 586 32,200 1,403 Climbing Denver Center
Thu 04:57:18 PM 40.0114 -102.5822 82° East 516 594 33,900 1,597 Climbing Denver Center
Thu 04:58:20 PM 40.0328 -102.3758 82° East 514 592 35,500 1,161 Climbing Denver Center
Thu 04:59:22 PM 40.0503 -102.1961 83° East 521 600 36,300 484 Climbing Denver Center
Thu 05:01:00 PM 40.0732 -101.9183 84° East  Level FlightAware Approximate
Thu 05:01:26 PM 40.0906 -101.7994 84° East 536 617 37,000  Level Denver Center
Thu 05:02:28 PM 40.1108 -101.5853 83° East 535 616 37,000  Level Denver Center
Thu 05:03:30 PM 40.1292 -101.4008 83° East 537 618 37,000  Level Denver Center
Thu 05:04:32 PM 40.1489 -101.1881 83° East 533 613 37,000  Level Denver Center
Thu 05:05:33 PM 40.1658 -101.0069 83° East 529 609 37,000  Level Denver Center
Thu 05:06:47 PM 40.1858 -100.7936 83° East 533 613 37,000  Level Denver Center
Thu 05:07:50 PM 40.2128 -100.5514 82° East 533 613 37,000  Level Denver Center
Thu 05:08:52 PM 40.2481 -100.3769 75° East 524 603 37,000  Level Denver Center
Thu 05:09:53 PM 40.2900 -100.1708 75° East 528 608 37,000  Level Denver Center
Thu 05:10:55 PM 40.3247 -99.9942 75° East 526 605 37,000  Level Denver Center
Thu 05:11:57 PM 40.3600 -99.8197 75° East 524 603 37,000  Level Denver Center
Thu 05:12:59 PM 40.4039 -99.5958 75° East 528 608 37,000  Level Denver Center
Thu 05:14:01 PM 40.4408 -99.4114 75° East 527 606 37,000  Level Denver Center
Thu 05:15:03 PM 40.4756 -99.2250 76° East 527 606 37,000  Level Denver Center
Thu 05:16:04 PM 40.5119 -99.0403 75° East 526 605 37,000  Level Denver Center
Thu 05:17:06 PM 40.5472 -98.8542 76° East 528 608 37,000  Level Denver Center
Thu 05:18:08 PM 40.5817 -98.6683 76° East 528 608 37,000  Level Denver Center
Thu 05:19:10 PM 40.6225 -98.4458 76° East 526 605 37,000  Level Denver Center
Thu 05:20:20 PM 40.6564 -98.2619 76° East 524 603 37,000  Level Minneapolis Center
Thu 05:21:22 PM 40.6972 -98.0397 76° East 523 602 37,000  Level Minneapolis Center
Thu 05:22:24 PM 40.7303 -97.8542 77° East 523 602 37,000  Level Minneapolis Center
Thu 05:23:26 PM 40.7636 -97.6681 77° East 523 602 37,000  Level Minneapolis Center
Thu 05:24:28 PM 40.7956 -97.4803 77° East 525 604 37,000  Level Minneapolis Center
Thu 05:25:30 PM 40.8308 -97.2836 77° East 525 604 37,000  Level Minneapolis Center
Thu 05:26:33 PM 40.8636 -97.0950 77° East 527 606 37,000  Level Minneapolis Center
Thu 05:27:35 PM 40.8964 -96.9047 77° East 531 611 37,000  Level Minneapolis Center
Thu 05:28:37 PM 40.9281 -96.7114 78° East 538 619 37,000  Level Minneapolis Center
Thu 05:29:39 PM 40.9694 -96.4836 76° East 535 616 37,000  Level Minneapolis Center
Thu 05:30:41 PM 41.0053 -96.2933 76° East 536 617 37,000  Level Minneapolis Center
Thu 05:31:43 PM 41.0367 -96.1033 78° East 535 616 37,000  Level Minneapolis Center
Thu 05:32:45 PM 41.0689 -95.9139 77° East 536 617 37,000  Level Minneapolis Center
Thu 05:33:47 PM 41.1081 -95.6861 77° East 536 617 37,000  Level Minneapolis Center
Thu 05:34:49 PM 41.1406 -95.4944 77° East 539 620 37,000  Level Minneapolis Center
Thu 05:35:51 PM 41.1736 -95.3031 77° East 537 618 37,000  Level Minneapolis Center
Thu 05:36:53 PM 41.2058 -95.1092 77° East 539 620 37,000  Level Minneapolis Center
Thu 05:37:55 PM 41.2369 -94.9164 78° East 538 619 37,000  Level Minneapolis Center
Thu 05:38:57 PM 41.2678 -94.7217 78° East 539 620 37,000  Level Minneapolis Center
Thu 05:39:59 PM 41.2989 -94.5267 78° East 541 623 37,000  Level Minneapolis Center
Thu 05:41:02 PM 41.3358 -94.2908 78° East 542 624 37,000  Level Minneapolis Center
Thu 05:42:04 PM 41.3653 -94.1044 78° East 546 628 37,000  Level Minneapolis Center
Thu 05:43:06 PM 41.3972 -93.9067 78° East 548 631 37,000  Level Minneapolis Center
Thu 05:44:08 PM 41.4328 -93.6708 79° East 546 628 37,000  Level Minneapolis Center
Thu 05:45:10 PM 41.4544 -93.4711 82° East 547 629 37,000  Level Minneapolis Center
Thu 05:46:12 PM 41.4731 -93.2714 83° East 548 631 37,000  Level Minneapolis Center
Thu 05:47:14 PM 41.4925 -93.0725 82° East 544 626 37,000  Level Minneapolis Center
Thu 05:48:16 PM 41.5108 -92.8744 83° East 543 625 37,000  Level Minneapolis Center
Thu 05:49:18 PM 41.5250 -92.7172 83° East 539 620 37,000  Level Minneapolis Center
Thu 05:50:20 PM 41.5503 -92.4408 83° East 539 620 37,000  Level Minneapolis Center
Thu 05:51:22 PM 41.5672 -92.2414 83° East 542 624 37,000  Level Minneapolis Center
Thu 05:52:24 PM 41.5806 -92.0836 84° East 539 620 37,000  Level Minneapolis Center
Thu 05:53:26 PM 41.6019 -91.8439 83° East 541 623 37,000  Level Minneapolis Center
Thu 05:54:37 PM 41.6208 -91.6042 84° East 545 627 37,000  Level Chicago Center
Thu 05:55:39 PM 41.6350 -91.4078 84° East 540 621 37,000  Level Chicago Center
Thu 05:56:41 PM 41.6544 -91.1689 84° East 543 625 37,000  Level Chicago Center
Thu 05:57:43 PM 41.6686 -90.9722 84° East 539 620 37,000  Level Chicago Center
Thu 05:58:45 PM 41.6833 -90.7744 84° East 540 621 37,000  Level Chicago Center
Thu 05:59:47 PM 41.6992 -90.5539 84° East 533 613 37,000  Level Chicago Center
Thu 06:00:50 PM 41.7128 -90.3542 85° East 536 617 37,000  Level Chicago Center
Thu 06:01:52 PM 41.7264 -90.1581 85° East 531 611 37,000  Level Chicago Center
Thu 06:02:54 PM 41.7389 -89.9581 85° East 535 616 37,000  Level Chicago Center
Thu 06:03:56 PM 41.7533 -89.7592 84° East 535 616 37,000  Level Chicago Center
Thu 06:04:59 PM 41.7667 -89.5394 85° East 529 609 37,000  Level Chicago Center
Thu 06:06:01 PM 41.7789 -89.3444 85° East 528 608 37,000  Level Chicago Center
Thu 06:07:03 PM 41.7892 -89.1503 86° East 525 604 37,000  Level Chicago Center
Thu 06:08:05 PM 41.8011 -88.9578 85° East 523 602 37,000  Level Chicago Center
Thu 06:09:07 PM 41.8128 -88.7236 86° East 525 604 37,000  Level Chicago Center
Thu 06:10:09 PM 41.8242 -88.5286 85° East 524 603 37,000  Level Chicago Center
Thu 06:11:11 PM 41.8342 -88.3322 86° East 527 606 37,000  Level Chicago Center
Thu 06:12:13 PM 41.8433 -88.1350 86° East 527 606 37,000  Level Chicago Center
Thu 06:13:15 PM 41.8533 -87.9381 86° East 527 606 37,000  Level Chicago Center
Thu 06:14:17 PM 41.8625 -87.7408 86° East 527 606 37,000  Level Chicago Center
Thu 06:15:19 PM 41.8733 -87.5047 86° East 529 609 37,000  Level Chicago Center
Thu 06:16:22 PM 41.8814 -87.3072 87° East 528 608 37,000  Level Chicago Center
Thu 06:17:24 PM 41.8881 -87.1114 87° East 525 604 37,000  Level Chicago Center
Thu 06:18:26 PM 41.8967 -86.9169 87° East 523 602 37,000  Level Chicago Center
Thu 06:19:28 PM 41.9053 -86.7217 87° East 525 604 37,000  Level Chicago Center
Thu 06:20:30 PM 41.9117 -86.5122 88° East 520 598 37,000  Level Chicago Center
Thu 06:21:32 PM 41.9189 -86.3167 87° East 522 601 37,000  Level Chicago Center
Thu 06:22:34 PM 41.9253 -86.1219 87° East 521 600 37,000  Level Chicago Center
Thu 06:23:36 PM 41.9319 -85.9264 87° East 524 603 37,000  Level Chicago Center
Thu 06:24:38 PM 41.9372 -85.7278 88° East 529 609 37,000  Level Chicago Center
Thu 06:25:40 PM 41.9439 -85.4867 88° East 533 613 37,000  Level Chicago Center
Thu 06:26:39 PM 41.9500 -85.3133 87° East 548 631 37,000  Level Cleveland Center
Thu 06:27:38 PM 41.9539 -85.1097 88° East 553 636 37,000  Level Cleveland Center
Thu 06:28:38 PM 41.9533 -84.9086 90° East 547 629 37,000  Level Cleveland Center
Thu 06:29:38 PM 41.9503 -84.7128 91° East 537 618 37,000  Level Cleveland Center
Thu 06:30:38 PM 41.9489 -84.5117 90° East 537 618 37,000  Level Cleveland Center
Thu 06:31:38 PM 41.9472 -84.3161 91° East 537 618 37,000  Level Cleveland Center
Thu 06:32:38 PM 41.9414 -84.1008 92° East 532 612 37,000  Level Cleveland Center
Thu 06:33:38 PM 41.9389 -83.9025 91° East 532 612 37,000  Level Cleveland Center
Thu 06:34:38 PM 41.9361 -83.7097 91° East 532 612 37,000  Level Cleveland Center
Thu 06:35:38 PM 41.9325 -83.5336 92° East 527 606 37,000  Level Cleveland Center
Thu 06:36:38 PM 41.9331 -83.3381 90° East 520 598 37,000  Level Cleveland Center
Thu 06:37:39 PM 41.9314 -83.1425 91° East 515 593 37,000  Level Cleveland Center
Thu 06:38:38 PM 41.9292 -82.9500 91° East 515 593 37,000  Level Cleveland Center
Thu 06:40:00 PM 41.9174 -82.7005 90° East  Level FlightAware Approximate
Thu 06:40:38 PM 41.9261 -82.5619 90° East 515 593 37,000  Level Cleveland Center
Thu 06:41:39 PM 41.9253 -82.3664 90° East 515 593 37,000  Level Cleveland Center
Thu 06:42:38 PM 41.9197 -82.1711 92° East 520 598 37,000  Level Cleveland Center
Thu 06:43:38 PM 41.9183 -81.9617 90° East 513 590 37,000  Level Cleveland Center
Thu 06:44:38 PM 41.9122 -81.7689 92° East 521 600 37,000  Level Cleveland Center
Thu 06:45:38 PM 41.8931 -81.5706 97° East 526 605 37,000  Level Cleveland Center
Thu 06:46:38 PM 41.8758 -81.3919 97° East 531 611 37,000  Level Cleveland Center
Thu 06:47:38 PM 41.8583 -81.1964 97° East 531 611 37,000  Level Cleveland Center
Thu 06:48:38 PM 41.8425 -80.9983 96° East 531 611 37,000  Level Cleveland Center
Thu 06:49:38 PM 41.8222 -80.8061 98° East 531 611 37,000  Level Cleveland Center
Thu 06:50:38 PM 41.8036 -80.6111 97° East 526 605 37,000  Level Cleveland Center
Thu 06:51:38 PM 41.7806 -80.4022 98° East 518 596 37,000  Level Cleveland Center
Thu 06:52:38 PM 41.7633 -80.2100 97° East 523 602 37,000  Level Cleveland Center
Thu 06:53:38 PM 41.7439 -80.0128 97° East 523 602 37,000  Level Cleveland Center
Thu 06:54:38 PM 41.7239 -79.8236 98° East 523 602 37,000  Level Cleveland Center
Thu 06:55:38 PM 41.7039 -79.6319 98° East 517 595 37,000  Level Cleveland Center
Thu 06:56:38 PM 41.6833 -79.4406 98° East 517 595 37,000  Level Cleveland Center
Thu 06:57:38 PM 41.6625 -79.2464 98° East 524 603 37,000  Level Cleveland Center
Thu 06:58:38 PM 41.6392 -79.0522 99° East 524 603 37,000  Level Cleveland Center
Thu 06:59:38 PM 41.6178 -78.8583 98° East 524 603 37,000  Level Cleveland Center
Thu 07:00:38 PM 41.5958 -78.6672 99° East 524 603 37,000  Level Cleveland Center
Thu 07:01:38 PM 41.5736 -78.4708 99° East 524 603 37,000 -400 Level Cleveland Center
Thu 07:02:38 PM 41.5492 -78.2775 100° East 524 603 36,200 -2,060 Descending Cleveland Center
Thu 07:03:52 PM 41.5231 -78.0531 99° East 519 597 32,400 -2,328 Descending New York Center
Thu 07:04:52 PM 41.4972 -77.8619 100° East 519 597 31,000 -694 Descending New York Center
Thu 07:05:53 PM 41.4708 -77.6736 101° East 519 597 31,000  Level New York Center
Thu 07:06:51 PM 41.4442 -77.4825 100° East 519 597 31,000  Level New York Center
Thu 07:07:52 PM 41.4150 -77.2969 102° East 519 597 31,000  Level New York Center
Thu 07:08:53 PM 41.3875 -77.1089 101° East 514 592 31,000  Level New York Center
Thu 07:09:51 PM 41.3600 -76.9239 101° East 514 592 31,000 -864 Level New York Center
Thu 07:10:51 PM 41.3258 -76.7328 103° East 514 592 29,300 -2,281 Descending New York Center
Thu 07:11:52 PM 41.2781 -76.5603 110° East 514 592 26,400 -2,777 Descending New York Center
Thu 07:12:52 PM 41.2319 -76.3936 110° East 495 570 23,700 -2,600 Descending New York Center
Thu 07:13:52 PM 41.1931 -76.2469 109° East 474 545 21,200 -2,628 Descending New York Center
Thu 07:14:53 PM 41.1542 -76.0922 108° East 455 524 18,400 -1,664 Descending New York Center
Thu 07:15:51 PM 41.1131 -75.9431 110° East 437 503 17,900 -1,008 Descending New York Center
Thu 07:16:52 PM 41.0717 -75.7883 109° East 419 482 16,400 -1,884 Descending New York Center
Thu 07:17:52 PM 41.0317 -75.6478 111° Southeast 407 468 14,100 -1,686 Descending New York Center
Thu 07:18:53 PM 40.9956 -75.5161 110° East 390 449 13,000 -1,041 Descending New York Center
Thu 07:19:53 PM 40.9625 -75.4011 111° Southeast 380 437 12,000 -1,220 Descending New York Center
Thu 07:20:51 PM 40.9278 -75.2781 110° East 375 432 10,600 -1,059 Descending New York Center
Thu 07:21:52 PM 40.8947 -75.1606 110° East 328 377 9,900 -942 Descending New York Center
Thu 07:22:52 PM 40.8669 -75.0597 110° East 298 343 8,700 -1,240 Descending New York Center
Thu 07:23:53 PM 40.8372 -74.9592 111° Southeast 293 337 7,400 -857 Descending New York Center
Thu 07:24:51 PM 40.8300 -74.8683 96° East 293 337 7,000 -203 Descending New York Center
Thu 07:25:51 PM 40.8606 -74.7686 68° East 271 312 7,000 -397 Level New York Center
Thu 07:26:52 PM 40.8864 -74.6850 68° East 266 306 6,200 -793 Descending New York Center
Thu 07:27:52 PM 40.9167 -74.5881 68° East 266 306 5,400 -595 Descending New York Center
Thu 07:28:53 PM 40.9422 -74.5069 67° East 266 306 5,000 -202 Descending New York Center
Thu 07:29:51 PM 40.9475 -74.4028 86° East 261 300 5,000 -96 Level New York Center
Thu 07:30:58 PM 40.9333 -74.3000 100° East 262 302 4,800 -425 Descending New York TRACON
Thu 07:31:58 PM 40.9000 -74.2167 118° Southeast 257 296 4,100 -500 Descending New York TRACON
Thu 07:32:58 PM 40.8833 -74.1333 105° East 237 273 3,800 -650 Descending New York TRACON
Thu 07:33:58 PM 40.8333 -74.0833 143° Southeast 229 264 2,800 -900 Descending New York TRACON
Thu 07:34:58 PM 40.7833 -74.1000 194° South 196 226 2,000 -850 Descending New York TRACON
Thu 07:35:58 PM 40.7500 -74.1333 217° Southwest 160 184 1,100 -800 Descending New York TRACON
Thu 07:36:58 PM 40.7167 -74.1500 201° Southwest 136 157 400 -700 Descending New York TRACON
Thu 07:38:00 PM 40.6925 -74.1687 173° South  Level Estimated
Thu 07:45:00 PM 40.6925 -74.1687 173° South  Level Estimated
Thu 07:46:00 PM 40.6925 -74.1687 173° South  Level Estimated

Login

Don't have an account? Register now (free) for customized features, flight alerts, and more!